N050SB LEAL-LSZH
Flight info
| Callsign | N050SB |
|---|---|
| Flight time | N/A |
| Altitude | 28000 |
| Route | MITOS N851 RUXET DCT IZA N851 PTC Z238 CDP DCT CHELY N853 LUMAS DCT MAXIR DCT LUSOL DCT BODRU DCT OKTET DCT IRMAR DCT KINES DCT VANAS DCT MOBLO DCT UBIMA DCT SOSAL DCT KORED N871 BERSU |
| Aircraft | SF50/L-SDGRWY/L |
Departure
| Time | 2026-04-28 14:12 |
|---|---|
| Airport | Alicante-Elche Miguel Hernández Airport (LEAL) |
Arrival
| Time | N/A |
|---|---|
| Airport | Zürich Airport (LSZH) |
| Time | Latitude | Longitude | Altitude | Speed | Heading |
|---|---|---|---|---|---|
| 2026-04-28 13:56 | 38.28578 | -0.56479 | 109 ft | 0 kts | 67° |
| 2026-04-28 14:05 | 38.28589 | -0.56470 | 108 ft | 4 kts | 4° |
| 2026-04-28 14:05 | 38.28617 | -0.56479 | 108 ft | 5 kts | 9° |
| 2026-04-28 14:05 | 38.28637 | -0.56492 | 108 ft | 3 kts | 292° |
| 2026-04-28 14:06 | 38.28643 | -0.56527 | 110 ft | 5 kts | 280° |
| 2026-04-28 14:06 | 38.28641 | -0.56555 | 112 ft | 3 kts | 256° |
| 2026-04-28 14:06 | 38.28634 | -0.56579 | 113 ft | 5 kts | 227° |
| 2026-04-28 14:06 | 38.28581 | -0.56599 | 114 ft | 7 kts | 201° |
| 2026-04-28 14:07 | 38.28534 | -0.56620 | 113 ft | 8 kts | 216° |
| 2026-04-28 14:07 | 38.28517 | -0.56687 | 116 ft | 13 kts | 291° |
| 2026-04-28 14:07 | 38.28526 | -0.56767 | 119 ft | 6 kts | 284° |
| 2026-04-28 14:07 | 38.28531 | -0.56800 | 118 ft | 6 kts | 278° |
| 2026-04-28 14:08 | 38.28547 | -0.56903 | 123 ft | 14 kts | 285° |
| 2026-04-28 14:08 | 38.28555 | -0.56989 | 130 ft | 6 kts | 279° |
| 2026-04-28 14:08 | 38.28569 | -0.57087 | 134 ft | 18 kts | 278° |
| 2026-04-28 14:08 | 38.28593 | -0.57245 | 141 ft | 18 kts | 284° |
| 2026-04-28 14:09 | 38.28613 | -0.57394 | 145 ft | 17 kts | 281° |
| 2026-04-28 14:09 | 38.28618 | -0.57469 | 147 ft | 0 kts | 248° |
| 2026-04-28 14:09 | 38.28617 | -0.57470 | 148 ft | 2 kts | 245° |
| 2026-04-28 14:09 | 38.28581 | -0.57501 | 149 ft | 10 kts | 185° |
| 2026-04-28 14:10 | 38.28491 | -0.57516 | 151 ft | 14 kts | 171° |
| 2026-04-28 14:10 | 38.28445 | -0.57448 | 149 ft | 0 kts | 100° |
| 2026-04-28 14:10 | 38.28445 | -0.57447 | 149 ft | 0 kts | 101° |
| 2026-04-28 14:11 | 38.28427 | -0.57315 | 142 ft | 48 kts | 99° |
| 2026-04-28 14:11 | 38.28340 | -0.56602 | 142 ft | 110 kts | 96° |
| 2026-04-28 14:11 | 38.28246 | -0.55917 | 293 ft | 130 kts | 98° |
| 2026-04-28 14:11 | 38.28564 | -0.54270 | 499 ft | 173 kts | 44° |
| 2026-04-28 14:12 | 38.29756 | -0.53802 | 639 ft | 190 kts | 4° |
| 2026-04-28 14:12 | 38.31099 | -0.53862 | 774 ft | 195 kts | 1° |
| 2026-04-28 14:12 | 38.32510 | -0.53918 | 871 ft | 206 kts | 1° |
| 2026-04-28 14:12 | 38.33924 | -0.53994 | 1112 ft | 199 kts | 1° |
| 2026-04-28 14:13 | 38.35320 | -0.54085 | 1273 ft | 206 kts | 1° |
| 2026-04-28 14:13 | 38.36813 | -0.54153 | 1479 ft | 216 kts | 0° |
| 2026-04-28 14:13 | 38.38247 | -0.54219 | 1677 ft | 197 kts | 2° |
| 2026-04-28 14:13 | 38.39553 | -0.54297 | 1815 ft | 178 kts | 1° |
| 2026-04-28 14:14 | 38.40751 | -0.54368 | 1895 ft | 168 kts | 360° |
| 2026-04-28 14:14 | 38.41933 | -0.54420 | 2003 ft | 179 kts | 2° |
| 2026-04-28 14:14 | 38.43269 | -0.54486 | 2172 ft | 204 kts | 1° |
| 2026-04-28 14:14 | 38.44728 | -0.54543 | 2387 ft | 216 kts | 0° |
| 2026-04-28 14:15 | 38.46212 | -0.54204 | 2624 ft | 222 kts | 29° |
| 2026-04-28 14:15 | 38.47262 | -0.52818 | 2855 ft | 225 kts | 65° |
| 2026-04-28 14:15 | 38.47446 | -0.50851 | 3075 ft | 229 kts | 101° |
| 2026-04-28 14:15 | 38.46758 | -0.48987 | 3380 ft | 231 kts | 122° |
| 2026-04-28 14:16 | 38.45723 | -0.47434 | 3661 ft | 234 kts | 134° |
| 2026-04-28 14:16 | 38.44440 | -0.46138 | 3871 ft | 236 kts | 144° |
| 2026-04-28 14:16 | 38.42980 | -0.45155 | 4122 ft | 238 kts | 154° |
| 2026-04-28 14:16 | 38.41401 | -0.44494 | 4347 ft | 240 kts | 163° |
| 2026-04-28 14:17 | 38.39744 | -0.44163 | 4597 ft | 242 kts | 174° |
| 2026-04-28 14:17 | 38.38053 | -0.44200 | 4843 ft | 245 kts | 183° |
| 2026-04-28 14:17 | 38.36370 | -0.44488 | 5098 ft | 243 kts | 178° |
| 2026-04-28 14:17 | 38.34796 | -0.43849 | 5328 ft | 238 kts | 148° |
| 2026-04-28 14:18 | 38.33550 | -0.42541 | 5557 ft | 237 kts | 124° |
| 2026-04-28 14:18 | 38.33049 | -0.40562 | 5789 ft | 237 kts | 98° |
| 2026-04-28 14:18 | 38.32865 | -0.38478 | 6040 ft | 237 kts | 96° |
| 2026-04-28 14:18 | 38.32601 | -0.36406 | 6270 ft | 236 kts | 104° |
| 2026-04-28 14:19 | 38.32644 | -0.34330 | 6468 ft | 240 kts | 73° |
| 2026-04-28 14:19 | 38.33303 | -0.32365 | 6694 ft | 242 kts | 66° |
| 2026-04-28 14:19 | 38.34033 | -0.30421 | 6924 ft | 245 kts | 65° |
| 2026-04-28 14:19 | 38.34775 | -0.28458 | 7188 ft | 247 kts | 66° |
| 2026-04-28 14:20 | 38.35516 | -0.26473 | 7470 ft | 249 kts | 66° |
| 2026-04-28 14:20 | 38.36277 | -0.24474 | 7717 ft | 252 kts | 65° |
| 2026-04-28 14:20 | 38.36785 | -0.23139 | 7882 ft | 253 kts | 65° |
| 2026-04-28 14:20 | 38.37550 | -0.21106 | 8121 ft | 255 kts | 67° |
| 2026-04-28 14:21 | 38.38316 | -0.19058 | 8365 ft | 257 kts | 66° |
| 2026-04-28 14:21 | 38.39092 | -0.16998 | 8608 ft | 258 kts | 66° |
| 2026-04-28 14:21 | 38.39873 | -0.14926 | 8853 ft | 259 kts | 66° |
| 2026-04-28 14:21 | 38.40651 | -0.12849 | 9097 ft | 261 kts | 66° |
| 2026-04-28 14:22 | 38.41438 | -0.10757 | 9342 ft | 262 kts | 66° |
| 2026-04-28 14:22 | 38.42228 | -0.08652 | 9586 ft | 264 kts | 66° |
| 2026-04-28 14:22 | 38.43018 | -0.06533 | 9822 ft | 265 kts | 66° |
| 2026-04-28 14:22 | 38.43814 | -0.04407 | 10054 ft | 266 kts | 66° |
| 2026-04-28 14:23 | 38.44619 | -0.02258 | 10190 ft | 270 kts | 66° |
| 2026-04-28 14:23 | 38.45369 | -0.00086 | 10279 ft | 267 kts | 70° |
| 2026-04-28 14:23 | 38.46070 | 0.02118 | 10369 ft | 268 kts | 70° |
| 2026-04-28 14:23 | 38.46782 | 0.04323 | 10458 ft | 269 kts | 70° |
| 2026-04-28 14:24 | 38.47496 | 0.06533 | 10552 ft | 270 kts | 70° |
| 2026-04-28 14:24 | 38.48209 | 0.08752 | 10645 ft | 270 kts | 70° |
| 2026-04-28 14:24 | 38.48922 | 0.10972 | 10736 ft | 270 kts | 70° |
| 2026-04-28 14:24 | 38.49629 | 0.13168 | 10825 ft | 271 kts | 70° |
| 2026-04-28 14:25 | 38.50343 | 0.15401 | 10919 ft | 272 kts | 70° |
| 2026-04-28 14:25 | 38.51057 | 0.17635 | 11016 ft | 270 kts | 70° |
| 2026-04-28 14:25 | 38.51771 | 0.19857 | 11106 ft | 271 kts | 70° |
| 2026-04-28 14:25 | 38.52484 | 0.22092 | 11194 ft | 272 kts | 70° |
| 2026-04-28 14:26 | 38.53201 | 0.24335 | 11290 ft | 273 kts | 70° |
| 2026-04-28 14:26 | 38.53919 | 0.26581 | 11385 ft | 274 kts | 70° |
| 2026-04-28 14:26 | 38.54638 | 0.28833 | 11481 ft | 274 kts | 70° |
| 2026-04-28 14:26 | 38.55360 | 0.31094 | 11581 ft | 275 kts | 70° |
| 2026-04-28 14:27 | 38.56085 | 0.33367 | 11684 ft | 275 kts | 70° |
| 2026-04-28 14:27 | 38.56797 | 0.35603 | 11785 ft | 276 kts | 70° |
| 2026-04-28 14:27 | 38.57529 | 0.37908 | 11884 ft | 276 kts | 70° |
| 2026-04-28 14:27 | 38.58245 | 0.40162 | 11975 ft | 278 kts | 70° |
| 2026-04-28 14:28 | 38.58972 | 0.42453 | 12077 ft | 278 kts | 70° |
| 2026-04-28 14:28 | 38.59703 | 0.44749 | 12171 ft | 275 kts | 70° |
| 2026-04-28 14:28 | 38.60423 | 0.47024 | 12349 ft | 277 kts | 70° |
| 2026-04-28 14:28 | 38.61144 | 0.49308 | 12522 ft | 278 kts | 69° |
| 2026-04-28 14:29 | 38.61873 | 0.51599 | 12706 ft | 278 kts | 70° |
| 2026-04-28 14:29 | 38.62596 | 0.53894 | 12885 ft | 279 kts | 70° |
| 2026-04-28 14:29 | 38.63324 | 0.56195 | 13065 ft | 279 kts | 70° |
| 2026-04-28 14:29 | 38.64053 | 0.58499 | 13246 ft | 279 kts | 70° |
| 2026-04-28 14:30 | 38.64777 | 0.60804 | 13426 ft | 280 kts | 70° |
| 2026-04-28 14:30 | 38.65506 | 0.63120 | 13611 ft | 280 kts | 70° |
| 2026-04-28 14:30 | 38.66234 | 0.65430 | 13794 ft | 280 kts | 70° |
| 2026-04-28 14:30 | 38.66962 | 0.67746 | 13958 ft | 281 kts | 70° |
| 2026-04-28 14:31 | 38.67683 | 0.70038 | 14118 ft | 281 kts | 70° |
| 2026-04-28 14:31 | 38.68422 | 0.72390 | 14285 ft | 281 kts | 70° |
| 2026-04-28 14:31 | 38.69152 | 0.74717 | 14452 ft | 281 kts | 70° |
| 2026-04-28 14:31 | 38.69872 | 0.77009 | 14608 ft | 282 kts | 69° |
| 2026-04-28 14:32 | 38.70602 | 0.79335 | 14776 ft | 282 kts | 69° |
| 2026-04-28 14:32 | 38.71332 | 0.81668 | 14944 ft | 282 kts | 70° |
| 2026-04-28 14:32 | 38.72062 | 0.84003 | 15114 ft | 282 kts | 70° |
| 2026-04-28 14:32 | 38.72793 | 0.86339 | 15283 ft | 282 kts | 70° |
| 2026-04-28 14:33 | 38.73519 | 0.88674 | 15455 ft | 282 kts | 70° |
| 2026-04-28 14:33 | 38.74249 | 0.91007 | 15628 ft | 282 kts | 70° |
| 2026-04-28 14:33 | 38.74976 | 0.93340 | 15801 ft | 282 kts | 70° |
| 2026-04-28 14:33 | 38.75700 | 0.95675 | 15976 ft | 282 kts | 70° |
| 2026-04-28 14:34 | 38.77153 | 1.00334 | 16327 ft | 281 kts | 70° |
| 2026-04-28 14:34 | 38.77877 | 1.02660 | 16507 ft | 281 kts | 70° |
| 2026-04-28 14:34 | 38.78601 | 1.04987 | 16685 ft | 281 kts | 70° |
| 2026-04-28 14:35 | 38.78835 | 1.05740 | 16743 ft | 281 kts | 70° |